Time;durP1;ratioP1;P1;durP2;ratioP2;P2;SDS_P1;SDS_P2;PMS_P1;PMS_P2;Temp;Humidity;BMP_temperature;BMP_pressure;BME280_temperature;BME280_humidity;BME280_pressure;Samples;Min_cycle;Max_cycle;Signal;HPM_P1;HPM_P2
2022/03/12 00:01:25;;;;;;;;;;;21.50;36.10;;;;;;5072887;28;19928;-49
2022/03/12 00:03:54;;;;;;;;;;;21.50;36.10;;;;;;5073835;28;20372;-44
2022/03/12 00:06:24;;;;;;;;;;;21.50;36.10;;;;;;5071882;28;19971;-49
2022/03/12 00:08:53;;;;;;;;;;;21.50;36.10;;;;;;5073780;28;19924;-47
2022/03/12 00:11:22;;;;;;;;;;;21.50;36.10;;;;;;5073904;28;20330;-53
2022/03/12 00:13:50;;;;;;;;;;;21.50;36.10;;;;;;5073890;28;19947;-47
2022/03/12 00:16:24;;;;;;;;;;;21.50;36.10;;;;;;5072946;28;19960;-51
2022/03/12 00:18:53;;;;;;;;;;;21.50;36.10;;;;;;5073838;28;20288;-52
2022/03/12 00:21:22;;;;;;;;;;;21.50;36.10;;;;;;5072427;28;19976;-50
2022/03/12 00:23:50;;;;;;;;;;;21.50;36.10;;;;;;5073677;28;19977;-47
2022/03/12 00:26:18;;;;;;;;;;;21.40;36.00;;;;;;5073495;28;20083;-49
2022/03/12 00:28:45;;;;;;;;;;;21.40;36.70;;;;;;5073298;28;19925;-50
2022/03/12 00:31:12;;;;;;;;;;;21.40;36.00;;;;;;5073668;28;19929;-48
2022/03/12 00:33:40;;;;;;;;;;;21.40;36.00;;;;;;5054183;28;19931;-45
2022/03/12 00:36:07;;;;;;;;;;;21.40;36.10;;;;;;5059245;28;19931;-48
2022/03/12 00:38:35;;;;;;;;;;;21.40;36.00;;;;;;5073100;28;19985;-47
2022/03/12 00:41:04;;;;;;;;;;;21.40;36.00;;;;;;5073409;28;20342;-47
2022/03/12 00:43:31;;;;;;;;;;;21.40;36.10;;;;;;5073808;28;19950;-49
2022/03/12 00:45:58;;;;;;;;;;;21.40;36.10;;;;;;5073131;28;20446;-49
2022/03/12 00:48:25;;;;;;;;;;;21.40;36.10;;;;;;5072538;28;19925;-46
2022/03/12 00:51:04;;;;;;;;;;;21.40;36.10;;;;;;5072539;28;19982;-51
2022/03/12 00:53:31;;;;;;;;;;;21.40;36.10;;;;;;5073519;28;19924;-46
2022/03/12 00:55:58;;;;;;;;;;;21.40;36.10;;;;;;5073362;28;19939;-50
2022/03/12 00:58:25;;;;;;;;;;;21.40;36.10;;;;;;5055771;28;19925;-46
2022/03/12 01:00:52;;;;;;;;;;;21.40;36.10;;;;;;5073093;28;19975;-51
2022/03/12 01:03:19;;;;;;;;;;;21.40;36.10;;;;;;5072111;28;19947;-47
2022/03/12 01:05:49;;;;;;;;;;;21.40;36.10;;;;;;5072281;28;19925;-46
2022/03/12 01:08:17;;;;;;;;;;;21.40;36.10;;;;;;5073384;28;19924;-45
2022/03/12 01:10:44;;;;;;;;;;;21.40;36.10;;;;;;5072595;28;20019;-46
2022/03/12 01:13:12;;;;;;;;;;;21.40;36.10;;;;;;5073209;28;20412;-44
2022/03/12 01:15:39;;;;;;;;;;;21.40;36.10;;;;;;5073323;28;19992;-45
2022/03/12 01:18:10;;;;;;;;;;;21.40;36.10;;;;;;5074507;28;19976;-51
2022/03/12 01:20:36;;;;;;;;;;;21.40;36.10;;;;;;5076395;28;20334;-44
2022/03/12 01:23:04;;;;;;;;;;;21.40;36.20;;;;;;5075878;28;20007;-44
2022/03/12 01:25:31;;;;;;;;;;;21.40;36.20;;;;;;5076291;28;19924;-47
2022/03/12 01:27:58;;;;;;;;;;;21.40;36.20;;;;;;5076674;28;19925;-45
2022/03/12 01:30:26;;;;;;;;;;;21.40;36.20;;;;;;5076342;28;19925;-45
2022/03/12 01:32:53;;;;;;;;;;;21.40;36.20;;;;;;5075796;28;20296;-44
2022/03/12 01:35:21;;;;;;;;;;;21.40;36.20;;;;;;5076571;28;19925;-44
2022/03/12 01:37:48;;;;;;;;;;;21.30;36.10;;;;;;5075734;28;20020;-45
2022/03/12 01:40:15;;;;;;;;;;;21.40;36.20;;;;;;5076045;28;19930;-44
2022/03/12 01:42:43;;;;;;;;;;;21.40;36.20;;;;;;5076132;28;20407;-45
2022/03/12 01:45:12;;;;;;;;;;;21.30;36.10;;;;;;5075985;28;20276;-49
2022/03/12 01:47:40;;;;;;;;;;;21.40;36.20;;;;;;5075549;28;19925;-45
2022/03/12 01:50:08;;;;;;;;;;;21.30;36.10;;;;;;5075722;28;20019;-46
2022/03/12 01:52:35;;;;;;;;;;;21.30;36.10;;;;;;5075136;28;20014;-43
2022/03/12 01:55:03;;;;;;;;;;;21.30;36.10;;;;;;5075604;28;19968;-45
2022/03/12 01:57:30;;;;;;;;;;;21.30;36.10;;;;;;5076062;28;20292;-44
2022/03/12 01:59:57;;;;;;;;;;;21.30;36.10;;;;;;5075650;28;19979;-47
2022/03/12 02:02:24;;;;;;;;;;;21.30;36.10;;;;;;5075174;28;19925;-43
2022/03/12 02:04:52;;;;;;;;;;;21.30;36.10;;;;;;5055924;28;19971;-45
2022/03/12 02:07:21;;;;;;;;;;;21.30;36.10;;;;;;5063529;28;19968;-47
2022/03/12 02:09:49;;;;;;;;;;;21.30;36.10;;;;;;5075407;28;19924;-45
2022/03/12 02:12:16;;;;;;;;;;;21.30;36.10;;;;;;5075484;28;19925;-47
2022/03/12 02:14:43;;;;;;;;;;;21.30;36.10;;;;;;5075657;28;19924;-43
2022/03/12 02:17:11;;;;;;;;;;;21.30;36.10;;;;;;5075542;28;20342;-48
2022/03/12 02:19:39;;;;;;;;;;;21.30;36.10;;;;;;5074885;28;19932;-42
2022/03/12 02:22:08;;;;;;;;;;;21.30;36.10;;;;;;5074389;28;19967;-45
2022/03/12 02:24:36;;;;;;;;;;;21.30;36.20;;;;;;5076092;28;20024;-46
2022/03/12 02:27:04;;;;;;;;;;;21.30;36.10;;;;;;5075137;28;19924;-45
2022/03/12 02:29:31;;;;;;;;;;;21.30;36.10;;;;;;5074280;28;19928;-48
2022/03/12 02:32:01;;;;;;;;;;;21.30;36.10;;;;;;5075004;28;19924;-47
2022/03/12 02:34:30;;;;;;;;;;;21.30;36.10;;;;;;5073805;28;19925;-45
2022/03/12 02:36:57;;;;;;;;;;;21.30;36.10;;;;;;5073040;28;20457;-46
2022/03/12 02:39:27;;;;;;;;;;;21.30;36.10;;;;;;5055360;28;19924;-43
2022/03/12 02:41:55;;;;;;;;;;;21.30;36.10;;;;;;5054648;28;19970;-47
2022/03/12 02:44:23;;;;;;;;;;;21.30;36.10;;;;;;5055149;28;19925;-45
2022/03/12 02:47:05;;;;;;;;;;;21.30;36.20;;;;;;5054876;28;19924;-43
2022/03/12 02:49:37;;;;;;;;;;;21.30;36.10;;;;;;5068220;28;19970;-47
2022/03/12 02:52:05;;;;;;;;;;;21.30;36.10;;;;;;5072434;28;19968;-46
2022/03/12 02:54:32;;;;;;;;;;;21.30;36.10;;;;;;5054529;28;19925;-46
2022/03/12 02:57:01;;;;;;;;;;;21.30;36.10;;;;;;5054888;28;19970;-44
2022/03/12 02:59:29;;;;;;;;;;;21.30;36.10;;;;;;5055822;28;20339;-44
2022/03/12 03:01:57;;;;;;;;;;;21.30;36.10;;;;;;5054598;28;19964;-42
2022/03/12 03:04:25;;;;;;;;;;;21.30;36.10;;;;;;5065692;28;19925;-47
2022/03/12 03:06:52;;;;;;;;;;;21.30;36.10;;;;;;5074754;28;20012;-45
2022/03/12 03:09:19;;;;;;;;;;;21.30;36.10;;;;;;5055023;28;19978;-45
2022/03/12 03:11:46;;;;;;;;;;;21.30;36.70;;;;;;5054521;28;19975;-42
2022/03/12 03:14:18;;;;;;;;;;;21.30;36.10;;;;;;5054298;28;20381;-43
2022/03/12 03:16:47;;;;;;;;;;;21.20;36.00;;;;;;5055248;28;19925;-46
2022/03/12 03:19:17;;;;;;;;;;;21.20;36.10;;;;;;5063509;28;19978;-49
2022/03/12 03:21:44;;;;;;;;;;;21.20;36.00;;;;;;5073963;28;19924;-51
2022/03/12 03:24:11;;;;;;;;;;;21.20;36.00;;;;;;5073709;28;19955;-50
2022/03/12 03:26:40;;;;;;;;;;;21.20;36.00;;;;;;5073643;28;19981;-53
2022/03/12 03:29:08;;;;;;;;;;;21.20;36.00;;;;;;5074298;28;19993;-52
2022/03/12 03:31:35;;;;;;;;;;;21.20;36.10;;;;;;5073637;28;20426;-47
2022/03/12 03:34:02;;;;;;;;;;;21.20;36.10;;;;;;5072976;28;19924;-53
2022/03/12 03:36:29;;;;;;;;;;;21.20;36.10;;;;;;5074263;28;19964;-51
2022/03/12 03:38:57;;;;;;;;;;;21.20;36.10;;;;;;5073491;28;19939;-49
2022/03/12 03:41:23;;;;;;;;;;;21.20;36.70;;;;;;5073888;28;19951;-51
2022/03/12 03:43:51;;;;;;;;;;;21.20;36.10;;;;;;5073917;28;19978;-49
2022/03/12 03:46:19;;;;;;;;;;;21.20;36.10;;;;;;5074076;28;19928;-47
2022/03/12 03:48:50;;;;;;;;;;;21.20;36.10;;;;;;5072915;28;19928;-47
2022/03/12 03:51:17;;;;;;;;;;;21.20;36.10;;;;;;5073819;28;20028;-44
2022/03/12 03:53:45;;;;;;;;;;;21.20;36.10;;;;;;5073460;28;19978;-46
2022/03/12 03:56:12;;;;;;;;;;;21.20;36.10;;;;;;5073905;28;20311;-45
2022/03/12 03:58:39;;;;;;;;;;;21.20;36.10;;;;;;5073945;28;19963;-47
2022/03/12 04:01:12;;;;;;;;;;;21.20;36.10;;;;;;5073667;28;19972;-47
2022/03/12 04:03:44;;;;;;;;;;;21.20;36.10;;;;;;5073306;28;20343;-48
2022/03/12 04:06:11;;;;;;;;;;;21.20;36.10;;;;;;5053560;28;19924;-43
2022/03/12 04:08:41;;;;;;;;;;;21.20;36.10;;;;;;5060578;28;19974;-44
2022/03/12 04:11:13;;;;;;;;;;;21.20;36.70;;;;;;5073892;28;19982;-45
2022/03/12 04:13:40;;;;;;;;;;;21.20;36.10;;;;;;5073866;28;19931;-44
2022/03/12 04:16:07;;;;;;;;;;;21.20;36.10;;;;;;5073828;28;19929;-44
2022/03/12 04:18:35;;;;;;;;;;;21.20;36.10;;;;;;5073763;28;19924;-44
2022/03/12 04:21:04;;;;;;;;;;;21.20;36.10;;;;;;5072583;28;20363;-45
2022/03/12 04:23:31;;;;;;;;;;;21.20;36.10;;;;;;5073408;28;19924;-45
2022/03/12 04:25:59;;;;;;;;;;;21.20;36.10;;;;;;5073590;28;19932;-45
2022/03/12 04:28:33;;;;;;;;;;;21.20;36.10;;;;;;5073753;28;20010;-46
2022/03/12 04:31:00;;;;;;;;;;;21.20;36.10;;;;;;5073691;28;19924;-47
2022/03/12 04:33:29;;;;;;;;;;;21.20;36.10;;;;;;5073881;28;20345;-45
2022/03/12 04:35:56;;;;;;;;;;;21.20;36.10;;;;;;5072760;28;20359;-43
2022/03/12 04:38:25;;;;;;;;;;;21.20;36.10;;;;;;5073121;28;19939;-44
2022/03/12 04:40:56;;;;;;;;;;;21.20;36.10;;;;;;5073330;28;19947;-48
2022/03/12 04:43:28;;;;;;;;;;;21.20;36.10;;;;;;5073333;28;20376;-43
2022/03/12 04:45:56;;;;;;;;;;;21.20;36.10;;;;;;5073759;28;20299;-45
2022/03/12 04:48:23;;;;;;;;;;;21.20;36.20;;;;;;5073568;28;19968;-45
2022/03/12 04:50:51;;;;;;;;;;;21.20;36.20;;;;;;5072284;28;19924;-46
2022/03/12 04:53:19;;;;;;;;;;;21.20;36.20;;;;;;5076278;28;19925;-44
2022/03/12 04:55:47;;;;;;;;;;;21.20;36.10;;;;;;5077320;28;19946;-43
2022/03/12 04:58:14;;;;;;;;;;;21.20;36.20;;;;;;5077164;28;19924;-43
2022/03/12 05:00:42;;;;;;;;;;;21.20;36.20;;;;;;5077133;28;19924;-45
2022/03/12 05:03:11;;;;;;;;;;;21.20;36.20;;;;;;5077693;28;20011;-43
2022/03/12 05:05:40;;;;;;;;;;;21.20;36.10;;;;;;5075828;28;19924;-46
2022/03/12 05:08:13;;;;;;;;;;;21.20;36.10;;;;;;5076788;28;20376;-44
2022/03/12 05:10:41;;;;;;;;;;;21.10;36.00;;;;;;5076033;28;19924;-46
2022/03/12 05:13:09;;;;;;;;;;;21.20;36.10;;;;;;5060082;28;19924;-49
2022/03/12 05:15:39;;;;;;;;;;;21.10;36.10;;;;;;5076644;28;19928;-44
2022/03/12 05:18:07;;;;;;;;;;;21.10;36.10;;;;;;5076477;28;20397;-47
2022/03/12 05:20:39;;;;;;;;;;;21.10;36.10;;;;;;5075710;28;19932;-44
2022/03/12 05:23:07;;;;;;;;;;;21.10;36.00;;;;;;5076984;28;20023;-44
2022/03/12 05:25:35;;;;;;;;;;;21.10;36.00;;;;;;5059888;28;20007;-45
2022/03/12 05:28:02;;;;;;;;;;;21.10;36.10;;;;;;5056657;28;20343;-45
2022/03/12 05:30:29;;;;;;;;;;;21.10;36.10;;;;;;5056567;28;19928;-43
2022/03/12 05:32:56;;;;;;;;;;;21.20;36.20;;;;;;5056625;28;19925;-45
2022/03/12 05:35:23;;;;;;;;;;;21.10;36.10;;;;;;5062759;28;19964;-45
2022/03/12 05:37:51;;;;;;;;;;;21.10;36.10;;;;;;5075936;28;19970;-48
2022/03/12 05:40:19;;;;;;;;;;;21.10;36.00;;;;;;5075293;28;20011;-44
2022/03/12 05:42:47;;;;;;;;;;;21.10;36.10;;;;;;5076428;28;19928;-47
2022/03/12 05:45:15;;;;;;;;;;;21.10;36.10;;;;;;5076311;28;20046;-46
2022/03/12 05:47:42;;;;;;;;;;;21.10;36.10;;;;;;5076321;28;20350;-43
2022/03/12 05:50:10;;;;;;;;;;;21.10;36.00;;;;;;5075446;28;19966;-45
2022/03/12 05:52:37;;;;;;;;;;;21.10;36.00;;;;;;5075939;28;19956;-44
2022/03/12 05:55:06;;;;;;;;;;;21.10;36.00;;;;;;5075473;28;19924;-46
2022/03/12 05:57:32;;;;;;;;;;;21.10;36.10;;;;;;5076060;28;19967;-45
2022/03/12 06:00:02;;;;;;;;;;;21.10;36.00;;;;;;5076109;28;20022;-43
2022/03/12 06:02:30;;;;;;;;;;;21.20;36.10;;;;;;5075766;28;19979;-47
2022/03/12 06:05:00;;;;;;;;;;;21.10;36.00;;;;;;5074717;28;19924;-48
2022/03/12 06:07:27;;;;;;;;;;;21.20;36.10;;;;;;5075950;28;19970;-48
2022/03/12 06:09:57;;;;;;;;;;;21.20;36.10;;;;;;5074859;28;20427;-44
2022/03/12 06:12:27;;;;;;;;;;;21.20;36.10;;;;;;5075903;28;20338;-43
2022/03/12 06:14:57;;;;;;;;;;;21.20;36.10;;;;;;5075969;28;20339;-43
2022/03/12 06:17:24;;;;;;;;;;;21.20;36.00;;;;;;5075344;28;19967;-46
2022/03/12 06:19:52;;;;;;;;;;;21.20;36.00;;;;;;5075018;28;20011;-46
2022/03/12 06:22:19;;;;;;;;;;;21.20;36.00;;;;;;5074655;28;19983;-47
2022/03/12 06:24:46;;;;;;;;;;;21.20;36.00;;;;;;5074647;28;19960;-44
2022/03/12 06:27:17;;;;;;;;;;;21.20;36.00;;;;;;5075243;28;19947;-45
2022/03/12 06:29:45;;;;;;;;;;;21.20;36.00;;;;;;5075275;28;19971;-45
2022/03/12 06:32:14;;;;;;;;;;;21.20;36.00;;;;;;5075515;28;20015;-50
2022/03/12 06:34:41;;;;;;;;;;;21.20;36.00;;;;;;5075478;28;20053;-46
2022/03/12 06:37:09;;;;;;;;;;;21.20;36.00;;;;;;5074399;28;19925;-50
2022/03/12 06:39:36;;;;;;;;;;;21.20;35.90;;;;;;5075345;28;19968;-50
2022/03/12 06:42:04;;;;;;;;;;;21.20;36.00;;;;;;5074787;28;20011;-52
2022/03/12 06:44:32;;;;;;;;;;;21.20;35.90;;;;;;5075219;28;19963;-52
2022/03/12 06:47:00;;;;;;;;;;;21.20;36.00;;;;;;5075139;28;19982;-50
2022/03/12 06:49:28;;;;;;;;;;;21.20;35.90;;;;;;5075150;28;20333;-52
2022/03/12 06:51:55;;;;;;;;;;;21.20;35.90;;;;;;5060690;28;20420;-49
2022/03/12 06:54:22;;;;;;;;;;;21.20;35.90;;;;;;5054660;28;19925;-51
2022/03/12 06:56:49;;;;;;;;;;;21.20;35.90;;;;;;5072238;28;19928;-46
2022/03/12 06:59:16;;;;;;;;;;;21.20;35.90;;;;;;5074633;28;20395;-48
2022/03/12 07:01:49;;;;;;;;;;;21.20;35.80;;;;;;5074761;28;19924;-47
2022/03/12 07:04:16;;;;;;;;;;;21.20;35.80;;;;;;5074155;28;19925;-49
2022/03/12 07:06:43;;;;;;;;;;;21.20;35.80;;;;;;5073799;28;20319;-47
2022/03/12 07:09:10;;;;;;;;;;;21.20;35.80;;;;;;5074694;28;19971;-49
2022/03/12 07:11:38;;;;;;;;;;;21.20;35.80;;;;;;5073648;28;19954;-48
2022/03/12 07:14:05;;;;;;;;;;;21.20;35.80;;;;;;5074504;28;19968;-46
2022/03/12 07:16:32;;;;;;;;;;;21.20;35.80;;;;;;5074108;28;20375;-46
2022/03/12 07:19:01;;;;;;;;;;;21.20;35.80;;;;;;5074290;28;19929;-45
2022/03/12 07:21:28;;;;;;;;;;;21.30;35.80;;;;;;5073220;28;19955;-46
2022/03/12 07:23:55;;;;;;;;;;;21.30;35.80;;;;;;5074207;28;19924;-46
2022/03/12 07:26:22;;;;;;;;;;;21.20;35.70;;;;;;5055577;28;19925;-46
2022/03/12 07:28:49;;;;;;;;;;;21.30;35.80;;;;;;5074460;28;20269;-44
2022/03/12 07:31:16;;;;;;;;;;;21.30;35.80;;;;;;5074613;28;20338;-43
2022/03/12 07:33:44;;;;;;;;;;;21.30;35.80;;;;;;5074357;28;20340;-43
2022/03/12 07:36:11;;;;;;;;;;;21.30;35.80;;;;;;5073183;28;20464;-44
2022/03/12 07:38:38;;;;;;;;;;;21.30;35.70;;;;;;5073972;28;19964;-50
2022/03/12 07:41:05;;;;;;;;;;;21.30;35.70;;;;;;5073071;28;20019;-42
2022/03/12 07:43:32;;;;;;;;;;;21.30;35.70;;;;;;5073893;28;19925;-45
2022/03/12 07:46:03;;;;;;;;;;;21.30;35.70;;;;;;5073730;28;20015;-46
2022/03/12 07:48:30;;;;;;;;;;;21.30;35.70;;;;;;5074410;28;19928;-44
2022/03/12 07:51:06;;;;;;;;;;;21.30;35.70;;;;;;5055668;28;19974;-45
2022/03/12 07:53:33;;;;;;;;;;;21.30;35.60;;;;;;5073960;28;20342;-47
2022/03/12 07:56:00;;;;;;;;;;;21.30;35.60;;;;;;5073173;28;19933;-46
2022/03/12 07:58:28;;;;;;;;;;;21.30;35.60;;;;;;5074059;28;19924;-43
2022/03/12 08:00:57;;;;;;;;;;;21.30;35.60;;;;;;5073714;28;20015;-44
2022/03/12 08:03:25;;;;;;;;;;;21.30;35.50;;;;;;5073679;28;19931;-48
2022/03/12 08:05:52;;;;;;;;;;;21.40;35.60;;;;;;5073903;28;19928;-45
2022/03/12 08:08:19;;;;;;;;;;;21.40;35.60;;;;;;5072867;28;19925;-44
2022/03/12 08:13:32;;;;;;;;;;;21.40;35.50;;;;;;5073876;28;19924;-46
2022/03/12 08:15:59;;;;;;;;;;;21.40;35.50;;;;;;5073898;28;19970;-45
2022/03/12 08:18:27;;;;;;;;;;;21.40;35.40;;;;;;5073543;28;19928;-45
2022/03/12 08:20:54;;;;;;;;;;;21.40;35.40;;;;;;5073753;28;19925;-43
2022/03/12 08:23:22;;;;;;;;;;;21.40;35.40;;;;;;5072998;28;19986;-43
2022/03/12 08:25:49;;;;;;;;;;;21.40;35.40;;;;;;5072898;28;19928;-44
2022/03/12 08:28:17;;;;;;;;;;;21.40;35.30;;;;;;5076743;28;19925;-43
2022/03/12 08:30:46;;;;;;;;;;;21.40;35.20;;;;;;5077852;28;19985;-45
2022/03/12 08:33:13;;;;;;;;;;;21.40;35.20;;;;;;5077756;28;19986;-44
2022/03/12 08:35:40;;;;;;;;;;;21.40;35.10;;;;;;5077423;28;20445;-44
2022/03/12 08:38:07;;;;;;;;;;;21.50;35.80;;;;;;5076844;28;19971;-44
2022/03/12 08:40:35;;;;;;;;;;;21.50;35.10;;;;;;5077375;28;19980;-48
2022/03/12 08:43:03;;;;;;;;;;;21.50;35.10;;;;;;5076548;28;20011;-45
2022/03/12 08:45:31;;;;;;;;;;;21.50;35.00;;;;;;5077405;28;20019;-46
2022/03/12 08:47:58;;;;;;;;;;;21.50;35.00;;;;;;5077122;28;20015;-43
2022/03/12 08:50:25;;;;;;;;;;;21.50;35.00;;;;;;5077429;28;19924;-46
2022/03/12 08:52:52;;;;;;;;;;;21.50;34.90;;;;;;5076682;28;20018;-47
2022/03/12 08:55:19;;;;;;;;;;;21.50;34.90;;;;;;5076963;28;19974;-45
2022/03/12 08:57:46;;;;;;;;;;;21.50;34.90;;;;;;5058677;28;20400;-48
2022/03/12 09:00:15;;;;;;;;;;;21.50;34.80;;;;;;5076970;28;19971;-45
2022/03/12 09:02:42;;;;;;;;;;;21.50;34.70;;;;;;5077706;28;19968;-45
2022/03/12 09:05:12;;;;;;;;;;;21.50;34.70;;;;;;5076775;28;19931;-46
2022/03/12 09:07:39;;;;;;;;;;;21.50;34.70;;;;;;5076282;28;19931;-47
2022/03/12 09:10:06;;;;;;;;;;;21.60;34.70;;;;;;5077039;28;19924;-45
2022/03/12 09:12:33;;;;;;;;;;;21.60;34.70;;;;;;5076189;28;19928;-42
2022/03/12 09:15:00;;;;;;;;;;;21.60;34.60;;;;;;5076926;28;19928;-43
2022/03/12 09:17:27;;;;;;;;;;;21.60;34.60;;;;;;5076909;28;19964;-47
2022/03/12 09:19:54;;;;;;;;;;;21.60;34.50;;;;;;5076510;28;19924;-45
2022/03/12 09:22:23;;;;;;;;;;;21.60;34.50;;;;;;5074870;28;19928;-46
2022/03/12 09:24:50;;;;;;;;;;;21.60;34.50;;;;;;5075276;28;20406;-46
2022/03/12 09:27:17;;;;;;;;;;;21.60;34.50;;;;;;5073837;28;20346;-44
2022/03/12 09:29:44;;;;;;;;;;;21.70;34.50;;;;;;5075514;28;19994;-45
2022/03/12 09:32:10;;;;;;;;;;;21.70;34.50;;;;;;5075150;28;19968;-46
2022/03/12 09:34:38;;;;;;;;;;;21.70;34.40;;;;;;5075184;28;19963;-47
2022/03/12 09:37:06;;;;;;;;;;;21.70;34.40;;;;;;5074973;28;19982;-44
2022/03/12 09:39:34;;;;;;;;;;;21.70;34.40;;;;;;5074403;28;20447;-46
2022/03/12 09:42:01;;;;;;;;;;;21.70;34.30;;;;;;5074461;28;20322;-44
2022/03/12 09:44:28;;;;;;;;;;;21.70;34.30;;;;;;5075275;28;19924;-46
2022/03/12 09:46:55;;;;;;;;;;;21.80;34.40;;;;;;5075248;28;20006;-51
2022/03/12 09:49:23;;;;;;;;;;;21.80;34.40;;;;;;5074944;28;19947;-53
2022/03/12 09:51:50;;;;;;;;;;;21.80;34.30;;;;;;5075021;28;19975;-49
2022/03/12 09:54:18;;;;;;;;;;;21.80;34.30;;;;;;5074022;28;19924;-50
2022/03/12 09:56:45;;;;;;;;;;;21.80;34.30;;;;;;5074380;28;20354;-50
2022/03/12 09:59:12;;;;;;;;;;;21.80;34.20;;;;;;5074962;28;19948;-52
2022/03/12 10:01:39;;;;;;;;;;;21.80;34.20;;;;;;5074990;28;19928;-46
2022/03/12 10:04:06;;;;;;;;;;;21.80;34.20;;;;;;5074478;28;20022;-52
2022/03/12 10:06:33;;;;;;;;;;;21.90;34.30;;;;;;5074556;28;19932;-52
2022/03/12 10:09:03;;;;;;;;;;;21.90;34.20;;;;;;5073945;28;19924;-47
2022/03/12 10:11:30;;;;;;;;;;;21.90;34.20;;;;;;5075144;28;19925;-49
2022/03/12 10:13:57;;;;;;;;;;;21.90;34.20;;;;;;5074135;28;19986;-50
2022/03/12 10:16:25;;;;;;;;;;;21.90;34.70;;;;;;5074507;28;19925;-46
2022/03/12 10:18:52;;;;;;;;;;;22.00;34.20;;;;;;5074702;28;19960;-45
2022/03/12 10:21:20;;;;;;;;;;;22.00;34.20;;;;;;4985316;28;1941402;-46
2022/03/12 10:23:48;;;;;;;;;;;22.00;34.20;;;;;;5054949;28;19925;-46
2022/03/12 10:26:15;;;;;;;;;;;22.00;34.20;;;;;;5055452;28;19956;-47
2022/03/12 10:28:41;;;;;;;;;;;22.00;34.20;;;;;;5054215;28;19964;-49
2022/03/12 10:31:09;;;;;;;;;;;22.00;34.20;;;;;;5055306;28;19956;-45
2022/03/12 10:33:36;;;;;;;;;;;22.00;34.10;;;;;;5055009;28;19978;-47
2022/03/12 10:36:13;;;;;;;;;;;22.00;34.10;;;;;;5054706;28;19925;-52
2022/03/12 10:38:41;;;;;;;;;;;22.00;34.10;;;;;;5054112;28;20023;-48
2022/03/12 10:41:09;;;;;;;;;;;22.00;34.10;;;;;;5054743;28;19924;-45
2022/03/12 10:43:45;;;;;;;;;;;22.10;34.20;;;;;;5054318;28;19965;-48
2022/03/12 10:46:19;;;;;;;;;;;22.10;34.20;;;;;;5054977;28;20403;-44
2022/03/12 10:49:07;;;;;;;;;;;22.10;34.10;;;;;;5054856;28;20380;-45
2022/03/12 10:51:36;;;;;;;;;;;22.10;34.10;;;;;;5054512;28;19928;-46
2022/03/12 10:54:05;;;;;;;;;;;22.10;34.10;;;;;;5054034;28;19979;-45
2022/03/12 10:56:44;;;;;;;;;;;22.10;34.10;;;;;;5054707;28;20380;-48
2022/03/12 10:59:16;;;;;;;;;;;22.20;34.20;;;;;;5052634;28;19974;-42
2022/03/12 11:01:50;;;;;;;;;;;22.10;34.10;;;;;;5070235;28;20283;-46
2022/03/12 11:04:18;;;;;;;;;;;22.20;34.20;;;;;;5054844;28;19924;-47
2022/03/12 11:06:46;;;;;;;;;;;22.20;34.20;;;;;;5054474;28;19924;-46
2022/03/12 11:09:18;;;;;;;;;;;22.20;34.10;;;;;;5053764;28;19994;-45
2022/03/12 11:11:46;;;;;;;;;;;22.20;34.10;;;;;;5054260;28;19975;-45
2022/03/12 11:14:19;;;;;;;;;;;22.20;34.10;;;;;;5053842;28;20019;-44
2022/03/12 11:16:52;;;;;;;;;;;22.20;34.10;;;;;;5054769;28;19960;-44
2022/03/12 11:19:39;;;;;;;;;;;22.20;34.10;;;;;;5054569;28;19924;-45
2022/03/12 11:22:13;;;;;;;;;;;22.30;34.20;;;;;;5073738;28;20443;-46
2022/03/12 11:24:50;;;;;;;;;;;22.30;34.10;;;;;;5073642;28;19986;-47
2022/03/12 11:27:28;;;;;;;;;;;22.30;34.10;;;;;;5074626;28;19931;-46
2022/03/12 11:30:00;;;;;;;;;;;22.30;34.10;;;;;;5073305;28;19925;-46
2022/03/12 11:32:30;;;;;;;;;;;22.30;34.10;;;;;;5074469;28;19924;-44
2022/03/12 11:35:06;;;;;;;;;;;22.30;34.10;;;;;;5074692;28;19963;-45
2022/03/12 11:37:37;;;;;;;;;;;22.30;34.10;;;;;;5073837;28;20429;-44
2022/03/12 11:40:09;;;;;;;;;;;22.40;34.10;;;;;;5073202;28;19925;-45
2022/03/12 11:42:36;;;;;;;;;;;22.30;34.00;;;;;;5074290;28;20335;-44
2022/03/12 11:45:14;;;;;;;;;;;22.40;34.00;;;;;;5073201;28;19924;-46
2022/03/12 11:47:45;;;;;;;;;;;22.40;34.00;;;;;;5073854;28;19928;-45
2022/03/12 11:50:18;;;;;;;;;;;22.40;34.00;;;;;;5073871;28;19924;-48
2022/03/12 11:52:46;;;;;;;;;;;22.40;34.00;;;;;;5073666;28;19925;-46
2022/03/12 11:55:18;;;;;;;;;;;22.40;34.00;;;;;;5073052;28;19924;-46
2022/03/12 11:57:47;;;;;;;;;;;22.40;34.00;;;;;;5073841;28;19932;-46
2022/03/12 12:00:22;;;;;;;;;;;22.40;34.00;;;;;;5073167;28;19925;-46
2022/03/12 12:02:51;;;;;;;;;;;22.40;34.00;;;;;;5074005;28;19925;-45
2022/03/12 12:05:19;;;;;;;;;;;22.40;34.00;;;;;;5074035;28;19925;-46
2022/03/12 12:07:48;;;;;;;;;;;22.50;34.10;;;;;;5073623;28;19970;-44
2022/03/12 12:10:16;;;;;;;;;;;22.50;34.70;;;;;;5073159;28;20343;-44
2022/03/12 12:12:46;;;;;;;;;;;22.50;34.00;;;;;;5073954;28;20347;-46
2022/03/12 12:15:17;;;;;;;;;;;22.50;34.00;;;;;;5073215;28;19925;-45
2022/03/12 12:17:44;;;;;;;;;;;22.50;34.00;;;;;;5073874;28;19933;-46
2022/03/12 12:20:18;;;;;;;;;;;22.50;34.00;;;;;;5073405;28;19929;-45
2022/03/12 12:22:45;;;;;;;;;;;22.50;34.00;;;;;;5073469;28;19959;-43
2022/03/12 12:25:14;;;;;;;;;;;22.50;34.00;;;;;;5061992;28;20406;-44
2022/03/12 12:27:42;;;;;;;;;;;22.50;34.00;;;;;;5053485;28;19929;-45
2022/03/12 12:30:15;;;;;;;;;;;22.50;34.00;;;;;;5067535;28;19924;-45
2022/03/12 12:32:46;;;;;;;;;;;22.50;34.00;;;;;;5073706;28;19932;-47
2022/03/12 12:35:18;;;;;;;;;;;22.50;34.00;;;;;;5073888;28;19951;-43
2022/03/12 12:37:45;;;;;;;;;;;22.50;34.00;;;;;;5073654;28;19928;-43
2022/03/12 12:40:17;;;;;;;;;;;22.50;34.00;;;;;;5063338;28;19925;-46
2022/03/12 12:42:44;;;;;;;;;;;22.60;34.10;;;;;;5053275;28;20027;-46
2022/03/12 12:45:22;;;;;;;;;;;22.60;34.00;;;;;;5066097;28;19964;-47
2022/03/12 12:48:06;;;;;;;;;;;22.60;34.00;;;;;;5073377;28;19970;-45
2022/03/12 12:50:33;;;;;;;;;;;22.60;34.10;;;;;;5073488;28;20286;-45
2022/03/12 12:53:06;;;;;;;;;;;22.60;34.10;;;;;;5073392;28;20323;-46
2022/03/12 12:55:34;;;;;;;;;;;22.60;34.00;;;;;;5072359;28;19928;-50
2022/03/12 12:58:01;;;;;;;;;;;22.60;34.00;;;;;;5073468;28;19982;-52
2022/03/12 13:00:28;;;;;;;;;;;22.60;34.00;;;;;;5072397;28;20395;-49
2022/03/12 13:02:57;;;;;;;;;;;22.60;34.00;;;;;;5073439;28;19925;-47
2022/03/12 13:05:43;;;;;;;;;;;22.60;34.00;;;;;;5073072;28;19924;-47
2022/03/12 13:08:11;;;;;;;;;;;22.60;34.00;;;;;;5072913;28;20449;-44
2022/03/12 13:10:41;;;;;;;;;;;22.60;34.00;;;;;;5072697;28;19933;-52
2022/03/12 13:13:15;;;;;;;;;;;22.70;34.10;;;;;;5074570;28;19948;-48
2022/03/12 13:15:43;;;;;;;;;;;22.70;34.10;;;;;;5076340;28;19954;-52
2022/03/12 13:18:30;;;;;;;;;;;22.70;34.10;;;;;;5076629;28;19930;-46
2022/03/12 13:20:57;;;;;;;;;;;22.70;34.10;;;;;;5076194;28;19931;-44
2022/03/12 13:23:28;;;;;;;;;;;22.70;34.00;;;;;;5076835;28;19994;-46
2022/03/12 13:25:59;;;;;;;;;;;22.70;34.00;;;;;;5075761;28;19979;-44
2022/03/12 13:28:41;;;;;;;;;;;22.70;34.00;;;;;;5076729;28;19974;-45
2022/03/12 13:31:19;;;;;;;;;;;22.70;34.00;;;;;;5058736;28;19925;-42
2022/03/12 13:33:50;;;;;;;;;;;22.70;34.00;;;;;;5056755;28;19925;-45
2022/03/12 13:36:21;;;;;;;;;;;22.70;34.00;;;;;;5056151;28;19964;-45
2022/03/12 13:38:48;;;;;;;;;;;22.70;34.00;;;;;;5056587;28;19987;-46
2022/03/12 13:41:16;;;;;;;;;;;22.70;34.00;;;;;;5068619;28;20015;-46
2022/03/12 13:43:44;;;;;;;;;;;22.70;34.00;;;;;;5076201;28;20406;-47
2022/03/12 13:46:12;;;;;;;;;;;22.80;34.00;;;;;;5075385;28;19924;-46
2022/03/12 13:48:42;;;;;;;;;;;22.80;34.00;;;;;;5077166;28;19978;-46
2022/03/12 13:51:09;;;;;;;;;;;22.70;34.00;;;;;;5075889;28;20387;-43
2022/03/12 13:53:39;;;;;;;;;;;22.70;34.00;;;;;;5075854;28;19974;-45
2022/03/12 13:56:16;;;;;;;;;;;22.70;34.00;;;;;;5074408;28;19924;-47
2022/03/12 13:58:43;;;;;;;;;;;22.80;34.00;;;;;;5075901;28;20375;-45
2022/03/12 14:01:10;;;;;;;;;;;22.80;34.00;;;;;;5075173;28;19947;-42
2022/03/12 14:03:45;;;;;;;;;;;22.80;34.00;;;;;;5075747;28;19946;-44
2022/03/12 14:06:29;;;;;;;;;;;22.80;34.00;;;;;;5076072;28;19933;-44
2022/03/12 14:08:57;;;;;;;;;;;22.80;34.00;;;;;;5075962;28;19924;-43
2022/03/12 14:11:34;;;;;;;;;;;22.80;34.00;;;;;;5075077;28;19924;-44
2022/03/12 14:14:03;;;;;;;;;;;22.80;34.00;;;;;;5075751;28;19928;-46
2022/03/12 14:16:30;;;;;;;;;;;22.80;34.00;;;;;;5075128;28;19970;-47
2022/03/12 14:19:00;;;;;;;;;;;22.80;34.00;;;;;;5075748;28;19925;-47
2022/03/12 14:21:38;;;;;;;;;;;22.80;34.00;;;;;;5074496;28;19925;-50
2022/03/12 14:24:12;;;;;;;;;;;22.80;34.00;;;;;;5074341;28;19974;-46
2022/03/12 14:26:50;;;;;;;;;;;22.80;34.00;;;;;;5074548;28;19977;-48
2022/03/12 14:29:23;;;;;;;;;;;22.80;34.00;;;;;;5075844;28;19924;-43